createdAt,value
2016-05-03T00:00:24.180Z,0
2016-05-03T00:01:24.074Z,0
2016-05-03T00:02:24.060Z,0
2016-05-03T00:03:24.032Z,0
2016-05-03T00:04:24.035Z,0
2016-05-03T00:05:24.022Z,0
2016-05-03T00:06:23.977Z,0
2016-05-03T00:07:24.137Z,0
2016-05-03T00:08:23.951Z,0
2016-05-03T00:09:24.080Z,0
2016-05-03T00:10:23.926Z,0
2016-05-03T00:11:23.741Z,0
2016-05-03T00:12:23.885Z,0
2016-05-03T00:13:23.887Z,0
2016-05-03T00:14:23.687Z,0
2016-05-03T00:15:23.831Z,0
2016-05-03T00:16:23.815Z,0
2016-05-03T00:17:24.086Z,0
2016-05-03T00:18:23.773Z,0
2016-05-03T00:19:23.604Z,0
2016-05-03T00:20:23.732Z,0
2016-05-03T00:21:23.719Z,0
2016-05-03T00:22:23.737Z,0
2016-05-03T00:23:23.693Z,0
2016-05-03T00:24:23.711Z,0
2016-05-03T00:25:24.090Z,0
2016-05-03T00:26:23.640Z,0
2016-05-03T00:27:23.643Z,0
2016-05-03T00:28:23.675Z,0
2016-05-03T00:29:23.444Z,0
2016-05-03T00:30:23.544Z,0
2016-05-03T00:31:23.390Z,0
2016-05-03T00:32:23.738Z,0
2016-05-03T00:33:23.507Z,0
2016-05-03T00:34:23.493Z,0
2016-05-03T00:35:23.479Z,0
2016-05-03T00:36:23.452Z,0
2016-05-03T00:37:23.532Z,0
2016-05-03T00:38:23.429Z,0
2016-05-03T00:39:23.400Z,0
2016-05-03T00:40:23.731Z,0
2016-05-03T00:41:23.359Z,0
2016-05-03T00:42:23.189Z,0
2016-05-03T00:43:23.318Z,0
2016-05-03T00:44:23.304Z,0
2016-05-03T00:45:23.307Z,0
2016-05-03T00:46:23.278Z,0
2016-05-03T00:47:23.125Z,0
2016-05-03T00:48:23.737Z,0
2016-05-03T00:49:23.209Z,0
2016-05-03T00:50:23.211Z,0
2016-05-03T00:51:23.042Z,0
2016-05-03T00:52:23.029Z,0
2016-05-03T00:53:23.141Z,0
2016-05-03T00:54:23.144Z,0
2016-05-03T00:55:22.803Z,0
2016-05-03T00:56:23.742Z,0
2016-05-03T00:57:23.073Z,0
2016-05-03T00:58:23.061Z,0
2016-05-03T00:59:23.047Z,0
2016-05-03T01:00:22.878Z,0
2016-05-03T01:01:23.006Z,0
2016-05-03T01:02:22.821Z,0
2016-05-03T01:03:22.981Z,0
2016-05-03T01:04:22.999Z,0
2016-05-03T01:05:22.923Z,0
2016-05-03T01:06:22.911Z,0
2016-05-03T01:07:23.835Z,0
2016-05-03T01:08:22.744Z,0
2016-05-03T01:09:22.855Z,0
2016-05-03T01:10:22.844Z,0
2016-05-03T01:11:22.517Z,0
2016-05-03T01:12:23.068Z,0
2016-05-03T01:13:22.804Z,0
2016-05-03T01:14:22.775Z,0
2016-05-03T01:15:22.451Z,0
2016-05-03T01:16:22.734Z,0
2016-05-03T01:17:22.581Z,0
2016-05-03T01:18:22.708Z,0
2016-05-03T01:19:22.680Z,0
2016-05-03T01:20:23.026Z,0
2016-05-03T01:21:22.654Z,0
2016-05-03T01:22:22.937Z,0
2016-05-03T01:23:22.612Z,0
2016-05-03T01:24:22.600Z,0
2016-05-03T01:25:22.571Z,0
2016-05-03T01:26:22.558Z,0
2016-05-03T01:27:22.654Z,0
2016-05-03T01:28:22.517Z,0
2016-05-03T01:29:22.503Z,0
2016-05-03T01:30:22.475Z,0
2016-05-03T01:31:22.461Z,0
2016-05-03T01:32:22.153Z,0
2016-05-03T01:33:22.436Z,0
2016-05-03T01:34:22.408Z,0
2016-05-03T01:35:22.489Z,0
2016-05-03T01:36:22.382Z,0
2016-05-03T01:37:22.228Z,0
2016-05-03T01:38:22.356Z,0
2016-05-03T01:39:22.327Z,0
2016-05-03T01:40:22.158Z,0
2016-05-03T01:41:22.286Z,0
2016-05-03T01:42:22.289Z,0
2016-05-03T01:43:22.494Z,0
2016-05-03T01:44:22.247Z,0
2016-05-03T01:45:22.062Z,0
2016-05-03T01:46:22.205Z,0
2016-05-03T01:47:22.037Z,0
2016-05-03T01:48:22.180Z,0
2016-05-03T01:49:22.151Z,0
2016-05-03T01:50:22.138Z,0
2016-05-03T01:51:22.719Z,0
2016-05-03T01:52:22.518Z,0
2016-05-03T01:53:22.085Z,0
2016-05-03T01:54:22.071Z,0
2016-05-03T01:55:21.886Z,0
2016-05-03T01:56:21.874Z,0
2016-05-03T01:57:21.860Z,0
2016-05-03T01:58:21.987Z,0
2016-05-03T01:59:21.975Z,0
2016-05-03T02:00:21.790Z,0
2016-05-03T02:01:21.778Z,0
2016-05-03T02:02:21.905Z,0
2016-05-03T02:03:21.908Z,0
2016-05-03T02:04:21.879Z,0
2016-05-03T02:05:21.851Z,0
2016-05-03T02:06:21.698Z,0
2016-05-03T02:07:21.777Z,0
2016-05-03T02:08:21.844Z,0
2016-05-03T02:09:21.799Z,0
2016-05-03T02:10:21.770Z,0
2016-05-03T02:11:21.758Z,0
2016-05-03T02:12:21.744Z,0
2016-05-03T02:13:21.716Z,0
2016-05-03T02:14:21.703Z,0
2016-05-03T02:15:21.830Z,0
2016-05-03T02:16:21.505Z,0
2016-05-03T02:17:21.649Z,0
2016-05-03T02:18:21.635Z,0
2016-05-03T02:19:21.451Z,0
2016-05-03T02:20:21.594Z,0
2016-05-03T02:21:21.582Z,0
2016-05-03T02:22:21.459Z,0
2016-05-03T02:23:21.993Z,0
2016-05-03T02:24:21.526Z,0
2016-05-03T02:25:21.514Z,0
2016-05-03T02:26:21.485Z,0
2016-05-03T02:27:21.316Z,0
2016-05-03T02:28:21.459Z,0
2016-05-03T02:29:21.290Z,0
2016-05-03T02:30:21.684Z,0
2016-05-03T02:31:21.390Z,0
2016-05-03T02:32:21.376Z,0
2016-05-03T02:33:21.363Z,0
2016-05-03T02:34:21.195Z,0
2016-05-03T02:35:21.337Z,0
2016-05-03T02:36:21.169Z,0
2016-05-03T02:37:22.342Z,0
2016-05-03T02:38:21.628Z,0
2016-05-03T02:39:21.255Z,0
2016-05-03T02:40:21.225Z,0
2016-05-03T02:41:21.228Z,0
2016-05-03T02:42:21.200Z,0
2016-05-03T02:43:21.188Z,0
2016-05-03T02:44:21.175Z,0
2016-05-03T02:45:21.161Z,0
2016-05-03T02:46:21.586Z,0
2016-05-03T02:47:20.964Z,0
2016-05-03T02:48:21.107Z,0
2016-05-03T02:49:21.079Z,0
2016-05-03T02:50:21.065Z,0
2016-05-03T02:51:21.038Z,0
2016-05-03T02:52:21.040Z,0
2016-05-03T02:53:20.855Z,0
2016-05-03T02:54:21.639Z,0
2016-05-03T02:55:20.814Z,0
2016-05-03T02:56:20.973Z,0
2016-05-03T02:57:20.944Z,0
2016-05-03T02:58:20.916Z,0
2016-05-03T02:59:20.902Z,0
2016-05-03T03:00:20.562Z,0
2016-05-03T03:01:20.876Z,0
2016-05-03T03:02:20.582Z,0
2016-05-03T03:03:20.835Z,0
2016-05-03T03:04:21.026Z,0
2016-05-03T03:05:20.793Z,0
2016-05-03T03:06:20.765Z,0
2016-05-03T03:07:21.393Z,0
2016-05-03T03:08:20.614Z,0
2016-05-03T03:09:20.741Z,0
2016-05-03T03:10:20.901Z,0
2016-05-03T03:11:20.544Z,0
2016-05-03T03:12:21.000Z,0
2016-05-03T03:13:20.658Z,0
2016-05-03T03:14:20.334Z,0
2016-05-03T03:15:20.602Z,0
2016-05-03T03:16:20.605Z,0
2016-05-03T03:17:20.576Z,0
2016-05-03T03:18:20.766Z,0
2016-05-03T03:19:20.394Z,0
2016-05-03T03:20:20.990Z,0
2016-05-03T03:21:20.524Z,0
2016-05-03T03:22:20.527Z,0
2016-05-03T03:23:20.483Z,0
2016-05-03T03:24:20.454Z,0
2016-05-03T03:25:20.441Z,0
2016-05-03T03:26:20.428Z,0
2016-05-03T03:27:20.415Z,0
2016-05-03T03:28:21.027Z,0
2016-05-03T03:29:20.405Z,0
2016-05-03T03:30:20.361Z,0
2016-05-03T03:31:20.208Z,0
2016-05-03T03:32:20.320Z,0
2016-05-03T03:33:20.307Z,0
2016-05-03T03:34:20.121Z,0
2016-05-03T03:35:20.265Z,0
2016-05-03T03:36:20.299Z,0
2016-05-03T03:37:19.786Z,0
2016-05-03T03:38:20.211Z,0
2016-05-03T03:39:20.198Z,0
2016-05-03T03:40:20.012Z,0
2016-05-03T03:41:19.859Z,0
2016-05-03T03:42:20.003Z,0
2016-05-03T03:43:20.131Z,0
2016-05-03T03:44:19.790Z,0
2016-05-03T03:45:20.104Z,0
2016-05-03T03:46:20.075Z,0
2016-05-03T03:47:19.891Z,0
2016-05-03T03:48:19.878Z,0
2016-05-03T03:49:20.021Z,0
2016-05-03T03:50:19.837Z,0
2016-05-03T03:51:19.980Z,0
2016-05-03T03:52:20.327Z,0
2016-05-03T03:53:19.954Z,0
2016-05-03T03:54:19.785Z,0
2016-05-03T03:55:19.756Z,0
2016-05-03T03:56:19.885Z,0
2016-05-03T03:57:19.871Z,0
2016-05-03T03:58:19.545Z,0
2016-05-03T03:59:19.892Z,0
2016-05-03T04:00:19.816Z,0
2016-05-03T04:01:19.804Z,0
2016-05-03T04:02:19.791Z,0
2016-05-03T04:03:19.762Z,0
2016-05-03T04:04:19.593Z,0
2016-05-03T04:05:19.737Z,0
2016-05-03T04:06:19.568Z,0
2016-05-03T04:07:19.945Z,0
2016-05-03T04:08:19.697Z,0
2016-05-03T04:09:19.669Z,0
2016-05-03T04:10:19.484Z,0
2016-05-03T04:11:19.643Z,0
2016-05-03T04:12:19.615Z,0
2016-05-03T04:13:19.290Z,0
2016-05-03T04:14:19.572Z,0
2016-05-03T04:15:19.810Z,0
2016-05-03T04:16:19.531Z,0
2016-05-03T04:17:19.503Z,0
2016-05-03T04:18:19.506Z,0
2016-05-03T04:19:19.336Z,0
2016-05-03T04:20:19.464Z,0
2016-05-03T04:21:19.456Z,0
2016-05-03T04:22:19.614Z,0
2016-05-03T04:23:20.070Z,0
2016-05-03T04:24:19.557Z,0
2016-05-03T04:25:19.575Z,0
2016-05-03T04:26:19.589Z,0
2016-05-03T04:27:19.609Z,0
2016-05-03T04:28:19.596Z,0
2016-05-03T04:29:19.428Z,0
2016-05-03T04:30:19.604Z,0
2016-05-03T04:31:20.137Z,0
2016-05-03T04:32:19.567Z,0
2016-05-03T04:33:19.593Z,0
2016-05-03T04:34:19.539Z,0
2016-05-03T04:35:19.376Z,0
2016-05-03T04:36:19.540Z,0
2016-05-03T04:37:19.249Z,0
2016-05-03T04:38:19.488Z,0
2016-05-03T04:39:19.570Z,0
2016-05-03T04:40:19.451Z,0
2016-05-03T04:41:19.456Z,0
2016-05-03T04:42:19.428Z,0
2016-05-03T04:43:19.276Z,0
2016-05-03T04:44:19.404Z,0
2016-05-03T04:45:19.377Z,0
2016-05-03T04:46:19.380Z,0
2016-05-03T04:47:19.601Z,0
2016-05-03T04:48:19.323Z,0
2016-05-03T04:49:19.326Z,0
2016-05-03T04:50:19.142Z,0
2016-05-03T04:51:19.145Z,0
2016-05-03T04:52:20.460Z,0
2016-05-03T04:53:19.243Z,0
2016-05-03T04:54:19.293Z,0
2016-05-03T04:55:19.468Z,0
2016-05-03T04:56:19.065Z,0
2016-05-03T04:57:19.161Z,0
2016-05-03T04:58:19.164Z,0
2016-05-03T04:59:19.135Z,0
2016-05-03T05:00:19.137Z,0
2016-05-03T05:01:19.093Z,0
2016-05-03T05:02:19.237Z,0
2016-05-03T05:03:18.912Z,0
2016-05-03T05:04:19.039Z,0
2016-05-03T05:05:19.026Z,0
2016-05-03T05:06:18.872Z,0
2016-05-03T05:07:20.656Z,0
2016-05-03T05:08:18.987Z,0
2016-05-03T05:09:18.959Z,0
2016-05-03T05:10:19.102Z,0
2016-05-03T05:11:18.761Z,0
2016-05-03T05:12:18.764Z,0
2016-05-03T05:13:18.891Z,0
2016-05-03T05:14:18.878Z,0
2016-05-03T05:15:18.913Z,0
2016-05-03T05:16:18.680Z,0
2016-05-03T05:17:18.808Z,0
2016-05-03T05:18:19.249Z,0
2016-05-03T05:19:18.782Z,0
2016-05-03T05:20:18.769Z,0
2016-05-03T05:21:18.601Z,0
2016-05-03T05:22:19.619Z,0
2016-05-03T05:23:18.793Z,0
2016-05-03T05:24:18.702Z,0
2016-05-03T05:25:18.690Z,0
2016-05-03T05:26:19.114Z,0
2016-05-03T05:27:18.648Z,0
2016-05-03T05:28:18.478Z,0
2016-05-03T05:29:18.606Z,0
2016-05-03T05:30:18.593Z,0
2016-05-03T05:31:18.409Z,0
2016-05-03T05:32:18.551Z,0
2016-05-03T05:33:18.539Z,0
2016-05-03T05:34:18.573Z,0
2016-05-03T05:35:18.497Z,0
2016-05-03T05:36:18.500Z,0
2016-05-03T05:37:18.487Z,0
2016-05-03T05:38:18.474Z,0
2016-05-03T05:39:18.431Z,0
2016-05-03T05:40:18.417Z,0
2016-05-03T05:41:18.388Z,0
2016-05-03T05:42:18.547Z,0
2016-05-03T05:43:18.378Z,0
2016-05-03T05:44:18.349Z,0
2016-05-03T05:45:18.336Z,0
2016-05-03T05:46:18.152Z,0
2016-05-03T05:47:18.311Z,0
2016-05-03T05:48:18.282Z,0
2016-05-03T05:49:18.097Z,0
2016-05-03T05:50:18.538Z,0
2016-05-03T05:51:18.260Z,0
2016-05-03T05:52:19.684Z,0
2016-05-03T05:53:18.187Z,0
2016-05-03T05:54:18.174Z,0
2016-05-03T05:55:18.004Z,0
2016-05-03T05:56:18.132Z,0
2016-05-03T05:57:18.010Z,0
2016-05-03T05:58:18.559Z,0
2016-05-03T05:59:18.078Z,0
2016-05-03T06:00:17.940Z,0
2016-05-03T06:01:18.051Z,0
2016-05-03T06:02:17.867Z,0
2016-05-03T06:03:18.009Z,0
2016-05-03T06:04:17.998Z,0
2016-05-03T06:05:18.032Z,0
2016-05-03T06:06:17.987Z,0
2016-05-03T06:07:17.974Z,0
2016-05-03T06:08:17.914Z,0
2016-05-03T06:09:17.933Z,0
2016-05-03T06:10:17.904Z,0
2016-05-03T06:11:17.876Z,0
2016-05-03T06:12:17.863Z,0
2016-05-03T06:13:18.177Z,0
2016-05-03T06:14:17.665Z,0
2016-05-03T06:15:17.808Z,0
2016-05-03T06:16:17.795Z,0
2016-05-03T06:17:17.767Z,0
2016-05-03T06:18:17.755Z,0
2016-05-03T06:19:17.757Z,0
2016-05-03T06:20:17.728Z,0
2016-05-03T06:21:18.199Z,0
2016-05-03T06:22:17.796Z,0
2016-05-03T06:23:17.674Z,0
2016-05-03T06:24:17.630Z,0
2016-05-03T06:25:17.632Z,0
2016-05-03T06:26:17.618Z,0
2016-05-03T06:27:17.607Z,0
2016-05-03T06:28:17.577Z,0
2016-05-03T06:29:18.205Z,0
2016-05-03T06:30:17.537Z,0
2016-05-03T06:31:17.585Z,0
2016-05-03T06:32:17.495Z,0
2016-05-03T06:33:17.482Z,0
2016-05-03T06:34:17.328Z,0
2016-05-03T06:35:17.456Z,0
2016-05-03T06:36:17.428Z,0
2016-05-03T06:37:17.774Z,0
2016-05-03T06:38:17.385Z,0
2016-05-03T06:39:17.576Z,0
2016-05-03T06:40:17.219Z,0
2016-05-03T06:41:17.191Z,0
2016-05-03T06:42:17.350Z,0
2016-05-03T06:43:17.322Z,0
2016-05-03T06:44:17.136Z,0
2016-05-03T06:45:17.326Z,0
2016-05-03T06:46:17.266Z,0
2016-05-03T06:47:17.582Z,0
2016-05-03T06:48:17.069Z,0
2016-05-03T06:49:16.900Z,0
2016-05-03T06:50:17.199Z,0
2016-05-03T06:51:17.171Z,0
2016-05-03T06:52:17.346Z,0
2016-05-03T06:53:17.488Z,0
2016-05-03T06:54:17.116Z,0
2016-05-03T06:55:17.649Z,0
2016-05-03T06:56:17.075Z,0
2016-05-03T06:57:17.077Z,0
2016-05-03T06:58:17.033Z,0
2016-05-03T06:59:17.021Z,0
2016-05-03T07:00:17.007Z,0
2016-05-03T07:01:16.823Z,0
2016-05-03T07:02:16.966Z,0
2016-05-03T07:03:16.906Z,0
2016-05-03T07:04:16.940Z,0
2016-05-03T07:05:16.771Z,0
2016-05-03T07:06:16.915Z,0
2016-05-03T07:07:17.323Z,0
2016-05-03T07:08:16.857Z,0
2016-05-03T07:09:16.703Z,0
2016-05-03T07:10:16.831Z,0
2016-05-03T07:11:16.912Z,0
2016-05-03T07:12:16.806Z,0
2016-05-03T07:13:16.778Z,0
2016-05-03T07:14:16.764Z,0
2016-05-03T07:15:16.595Z,0
2016-05-03T07:16:16.566Z,0
2016-05-03T07:17:16.725Z,0
2016-05-03T07:18:16.697Z,0
2016-05-03T07:19:16.918Z,0
2016-05-03T07:20:16.655Z,0
2016-05-03T07:21:16.658Z,0
2016-05-03T07:22:16.895Z,0
2016-05-03T07:23:16.460Z,0
2016-05-03T07:24:16.588Z,0
2016-05-03T07:25:16.575Z,0
2016-05-03T07:26:16.546Z,0
2016-05-03T07:27:16.377Z,0
2016-05-03T07:28:16.504Z,0
2016-05-03T07:29:16.336Z,0
2016-05-03T07:30:16.463Z,0
2016-05-03T07:31:16.451Z,0
2016-05-03T07:32:16.282Z,0
2016-05-03T07:33:16.424Z,0
2016-05-03T07:34:16.505Z,0
2016-05-03T07:35:16.398Z,0
2016-05-03T07:36:16.370Z,0
2016-05-03T07:37:16.217Z,0
2016-05-03T07:38:16.328Z,0
2016-05-03T07:39:16.316Z,0
2016-05-03T07:40:16.146Z,0
2016-05-03T07:41:16.134Z,0
2016-05-03T07:42:16.543Z,0
2016-05-03T07:43:16.233Z,0
2016-05-03T07:44:16.064Z,0
2016-05-03T07:45:16.206Z,0
2016-05-03T07:46:16.178Z,0
2016-05-03T07:47:16.009Z,0
2016-05-03T07:48:16.153Z,0
2016-05-03T07:49:16.139Z,0
2016-05-03T07:50:16.548Z,0
2016-05-03T07:51:16.114Z,0
2016-05-03T07:52:16.069Z,0
2016-05-03T07:53:16.056Z,0
2016-05-03T07:54:16.044Z,0
2016-05-03T07:55:16.016Z,0
2016-05-03T07:56:16.002Z,0
2016-05-03T07:57:15.816Z,0
2016-05-03T07:58:16.569Z,0
2016-05-03T07:59:15.947Z,0
2016-05-03T08:00:15.763Z,0
2016-05-03T08:01:15.766Z,0
2016-05-03T08:02:15.753Z,0
2016-05-03T08:03:15.865Z,0
2016-05-03T08:04:15.852Z,0
2016-05-03T08:05:15.683Z,0
2016-05-03T08:06:15.670Z,0
2016-05-03T08:07:15.673Z,0
2016-05-03T08:08:15.769Z,0
2016-05-03T08:09:15.615Z,0
2016-05-03T08:10:15.742Z,0
2016-05-03T08:11:15.730Z,0
2016-05-03T08:12:15.701Z,0
2016-05-03T08:13:15.672Z,0
2016-05-03T08:14:15.660Z,0
2016-05-03T08:15:15.475Z,0
2016-05-03T08:16:15.618Z,0
2016-05-03T08:17:15.450Z,0
2016-05-03T08:18:15.592Z,0
2016-05-03T08:19:15.564Z,0
2016-05-03T08:20:15.394Z,0
2016-05-03T08:21:15.381Z,0
2016-05-03T08:22:15.822Z,0
2016-05-03T08:23:15.403Z,0
2016-05-03T08:24:15.468Z,0
2016-05-03T08:25:15.471Z,0
2016-05-03T08:26:15.458Z,0
2016-05-03T08:27:15.429Z,0
2016-05-03T08:28:15.275Z,4
2016-05-03T08:29:15.450Z,0
2016-05-03T08:30:15.203Z,0
2016-05-03T08:31:15.346Z,0
2016-05-03T08:32:15.349Z,0
2016-05-03T08:33:15.351Z,4
2016-05-03T08:34:15.323Z,0
2016-05-03T08:35:15.279Z,4
2016-05-03T08:36:14.951Z,0
2016-05-03T08:37:15.315Z,0
2016-05-03T08:38:15.459Z,0
2016-05-03T08:39:15.209Z,4
2016-05-03T08:40:15.195Z,0
2016-05-03T08:41:15.011Z,0
2016-05-03T08:42:15.154Z,4
2016-05-03T08:43:15.156Z,0
2016-05-03T08:44:15.112Z,0
2016-05-03T08:45:15.304Z,4
2016-05-03T08:46:15.087Z,4
2016-05-03T08:47:15.058Z,0
2016-05-03T08:48:15.062Z,0
2016-05-03T08:49:15.033Z,0
2016-05-03T08:50:15.019Z,4
2016-05-03T08:51:14.991Z,0
2016-05-03T08:52:14.978Z,0
2016-05-03T08:53:15.355Z,0
2016-05-03T08:54:14.796Z,0
2016-05-03T08:55:14.939Z,0
2016-05-03T08:56:14.911Z,0
2016-05-03T08:57:14.742Z,0
2016-05-03T08:58:14.885Z,0
2016-05-03T08:59:14.856Z,0
2016-05-03T09:00:14.688Z,0
2016-05-03T09:01:15.361Z,4
2016-05-03T09:02:14.661Z,4
2016-05-03T09:03:14.788Z,4
2016-05-03T09:04:14.776Z,4
2016-05-03T09:05:14.747Z,0
2016-05-03T09:06:14.735Z,0
2016-05-03T09:07:14.737Z,0
2016-05-03T09:08:14.865Z,0
2016-05-03T09:09:14.727Z,0
2016-05-03T09:10:14.510Z,0
2016-05-03T09:11:14.638Z,4
2016-05-03T09:12:14.610Z,0
2016-05-03T09:13:14.598Z,0
2016-05-03T09:14:14.584Z,0
2016-05-03T09:15:14.571Z,0
2016-05-03T09:16:14.401Z,0
2016-05-03T09:17:14.779Z,4
2016-05-03T09:18:14.548Z,0
2016-05-03T09:19:14.347Z,0
2016-05-03T09:20:14.491Z,0
2016-05-03T09:21:14.478Z,0
2016-05-03T09:22:14.449Z,0
2016-05-03T09:23:14.639Z,0
2016-05-03T09:24:14.439Z,0
2016-05-03T09:25:14.786Z,0
2016-05-03T09:26:14.397Z,0
2016-05-03T09:27:14.369Z,0
2016-05-03T09:28:14.341Z,4
2016-05-03T09:29:14.172Z,0
2016-05-03T09:30:14.314Z,0
2016-05-03T09:31:14.302Z,0
2016-05-03T09:32:14.444Z,0
2016-05-03T09:33:14.119Z,0
2016-05-03T09:34:14.106Z,4
2016-05-03T09:35:14.235Z,4
2016-05-03T09:36:14.205Z,0
2016-05-03T09:37:14.208Z,0
2016-05-03T09:38:15.383Z,0
2016-05-03T09:39:14.151Z,0
2016-05-03T09:40:14.404Z,4
2016-05-03T09:41:13.969Z,0
2016-05-03T09:42:14.096Z,0
2016-05-03T09:43:14.099Z,0
2016-05-03T09:44:13.915Z,0
2016-05-03T09:45:13.887Z,0
2016-05-03T09:46:14.045Z,4
2016-05-03T09:47:14.017Z,0
2016-05-03T09:48:14.301Z,0
2016-05-03T09:49:13.990Z,0
2016-05-03T09:50:13.978Z,0
2016-05-03T09:51:13.949Z,4
2016-05-03T09:52:13.781Z,4
2016-05-03T09:53:13.783Z,4
2016-05-03T09:54:13.738Z,4
2016-05-03T09:55:13.867Z,4
2016-05-03T09:56:14.463Z,4
2016-05-03T09:57:13.684Z,0
2016-05-03T09:58:13.828Z,4
2016-05-03T09:59:13.830Z,0
2016-05-03T10:00:13.817Z,0
2016-05-03T10:01:13.772Z,0
2016-05-03T10:02:13.745Z,4
2016-05-03T10:03:13.747Z,4
2016-05-03T10:04:13.718Z,4
2016-05-03T10:05:13.533Z,4
2016-05-03T10:06:13.818Z,0
2016-05-03T10:07:13.679Z,0
2016-05-03T10:08:14.041Z,0
2016-05-03T10:09:13.482Z,0
2016-05-03T10:10:13.609Z,0
2016-05-03T10:11:13.596Z,0
2016-05-03T10:12:13.724Z,4
2016-05-03T10:13:13.571Z,4
2016-05-03T10:14:13.807Z,0
2016-05-03T10:15:13.529Z,4
2016-05-03T10:16:13.376Z,4
2016-05-03T10:17:13.488Z,0
2016-05-03T10:18:13.490Z,4
2016-05-03T10:19:13.462Z,0
2016-05-03T10:20:13.698Z,0
2016-05-03T10:21:13.421Z,4
2016-05-03T10:22:13.814Z,0
2016-05-03T10:23:13.347Z,4
2016-05-03T10:24:13.397Z,0
2016-05-03T10:25:13.369Z,0
2016-05-03T10:26:13.340Z,0
2016-05-03T10:27:13.328Z,0
2016-05-03T10:28:13.752Z,0
2016-05-03T10:29:13.302Z,0
2016-05-03T10:30:13.820Z,0
2016-05-03T10:31:13.275Z,0
2016-05-03T10:32:13.247Z,0
2016-05-03T10:33:13.234Z,0
2016-05-03T10:34:13.221Z,0
2016-05-03T10:35:13.193Z,0
2016-05-03T10:36:13.039Z,0
2016-05-03T10:37:13.152Z,0
2016-05-03T10:38:13.341Z,0
2016-05-03T10:39:12.969Z,4
2016-05-03T10:40:13.113Z,0
2016-05-03T10:41:13.084Z,0
2016-05-03T10:42:13.087Z,4
2016-05-03T10:43:13.058Z,0
2016-05-03T10:44:12.920Z,0
2016-05-03T10:45:12.860Z,0
2016-05-03T10:46:13.160Z,4
2016-05-03T10:47:12.818Z,4
2016-05-03T10:48:12.962Z,4
2016-05-03T10:49:12.964Z,4
2016-05-03T10:50:12.936Z,4
2016-05-03T10:51:12.907Z,4
2016-05-03T10:52:12.910Z,0
2016-05-03T10:53:14.585Z,0
2016-05-03T10:54:13.103Z,0
2016-05-03T10:55:12.542Z,0
2016-05-03T10:56:12.812Z,0
2016-05-03T10:57:12.814Z,0
2016-05-03T10:58:12.801Z,0
2016-05-03T10:59:12.789Z,0
2016-05-03T11:00:12.760Z,4
2016-05-03T11:01:12.731Z,4
2016-05-03T11:02:13.125Z,4
2016-05-03T11:03:12.705Z,4
2016-05-03T11:04:12.677Z,4
2016-05-03T11:05:12.664Z,0
2016-05-03T11:06:12.666Z,0
2016-05-03T11:07:12.638Z,0
2016-05-03T11:08:12.469Z,0
2016-05-03T11:09:12.721Z,0
2016-05-03T11:10:12.600Z,0
2016-05-03T11:11:12.415Z,0
2016-05-03T11:12:12.401Z,4
2016-05-03T11:13:12.389Z,4
2016-05-03T11:14:12.359Z,0
2016-05-03T11:15:12.503Z,4
2016-05-03T11:16:12.490Z,4
2016-05-03T11:17:12.774Z,4
2016-05-03T11:18:12.449Z,0
2016-05-03T11:19:12.436Z,0
2016-05-03T11:20:12.298Z,0
2016-05-03T11:21:12.394Z,0
2016-05-03T11:22:12.226Z,0
2016-05-03T11:23:12.228Z,0
2016-05-03T11:24:12.356Z,0
2016-05-03T11:25:12.781Z,0
2016-05-03T11:26:12.314Z,0
2016-05-03T11:27:12.301Z,0
2016-05-03T11:28:12.273Z,0
2016-05-03T11:29:12.259Z,4
2016-05-03T11:30:12.247Z,4
2016-05-03T11:31:12.234Z,0
2016-05-03T11:32:12.205Z,0
2016-05-03T11:33:12.645Z,4
2016-05-03T11:34:12.180Z,4
2016-05-03T11:35:12.150Z,4
2016-05-03T11:36:12.153Z,4
2016-05-03T11:37:12.125Z,4
2016-05-03T11:38:11.971Z,0
2016-05-03T11:39:12.083Z,0
2016-05-03T11:40:12.071Z,4
2016-05-03T11:41:11.885Z,4
2016-05-03T11:42:12.030Z,0
2016-05-03T11:43:12.016Z,0
2016-05-03T11:44:12.004Z,4
2016-05-03T11:45:11.835Z,0
2016-05-03T11:46:11.837Z,0
2016-05-03T11:47:11.792Z,0
2016-05-03T11:48:11.779Z,0
2016-05-03T11:49:12.110Z,0
2016-05-03T11:50:11.895Z,0
2016-05-03T11:51:11.882Z,0
2016-05-03T11:52:11.556Z,0
2016-05-03T11:53:12.278Z,0
2016-05-03T11:54:11.842Z,0
2016-05-03T11:55:11.815Z,4
2016-05-03T11:56:11.786Z,0
2016-05-03T11:57:11.929Z,0
2016-05-03T11:58:11.775Z,4
2016-05-03T11:59:11.747Z,4
2016-05-03T12:00:11.562Z,4
2016-05-03T12:01:11.830Z,4
2016-05-03T12:02:11.537Z,4
2016-05-03T12:03:12.680Z,4
2016-05-03T12:04:11.666Z,4
2016-05-03T12:05:11.903Z,4
2016-05-03T12:06:11.469Z,4
2016-05-03T12:07:11.612Z,4
2016-05-03T12:08:12.178Z,4
2016-05-03T12:09:11.586Z,4
2016-05-03T12:10:11.417Z,4
2016-05-03T12:11:12.639Z,4
2016-05-03T12:12:11.563Z,4
2016-05-03T12:13:11.957Z,4
2016-05-03T12:14:11.334Z,0
2016-05-03T12:15:11.306Z,0
2016-05-03T12:16:11.308Z,0
2016-05-03T12:17:11.435Z,0
2016-05-03T12:18:11.298Z,0
2016-05-03T12:19:20.988Z,0
2016-05-03T12:20:11.397Z,0
2016-05-03T12:21:11.932Z,4
2016-05-03T12:22:11.199Z,4
2016-05-03T12:23:11.187Z,0
2016-05-03T12:24:11.330Z,0
2016-05-03T12:25:11.146Z,0
2016-05-03T12:26:11.132Z,4
2016-05-03T12:27:11.275Z,4
2016-05-03T12:28:11.247Z,4
2016-05-03T12:29:11.234Z,0
2016-05-03T12:30:11.220Z,0
2016-05-03T12:31:11.208Z,0
2016-05-03T12:32:11.039Z,0
2016-05-03T12:33:11.026Z,0
2016-05-03T12:34:11.154Z,0
2016-05-03T12:35:11.125Z,0
2016-05-03T12:36:11.127Z,4
2016-05-03T12:37:11.239Z,4
2016-05-03T12:38:11.367Z,0
2016-05-03T12:39:11.120Z,0
2016-05-03T12:40:11.061Z,4
2016-05-03T12:41:10.719Z,0
2016-05-03T12:42:11.003Z,8
2016-05-03T12:43:11.005Z,4
2016-05-03T12:44:10.977Z,4
2016-05-03T12:45:11.260Z,4
2016-05-03T12:46:10.780Z,4
2016-05-03T12:47:10.908Z,4
2016-05-03T12:48:10.894Z,4
2016-05-03T12:49:10.897Z,4
2016-05-03T12:50:10.712Z,4
2016-05-03T12:51:10.543Z,4
2016-05-03T12:52:10.873Z,4
2016-05-03T12:53:11.095Z,4
2016-05-03T12:54:10.785Z,4
2016-05-03T12:55:10.756Z,4
2016-05-03T12:56:10.743Z,4
2016-05-03T12:57:10.731Z,0
2016-05-03T12:58:10.562Z,24
2016-05-03T12:59:10.706Z,24
2016-05-03T13:00:10.865Z,20
2016-05-03T13:01:10.679Z,144
2016-05-03T13:02:10.651Z,136
2016-05-03T13:03:10.153Z,136
2016-05-03T13:04:10.297Z,132
2016-05-03T13:05:10.143Z,136
2016-05-03T13:06:10.583Z,136
2016-05-03T13:07:10.383Z,132
2016-05-03T13:08:10.838Z,132
2016-05-03T13:09:10.200Z,136
2016-05-03T13:10:10.375Z,136
2016-05-03T13:11:10.331Z,136
2016-05-03T13:12:10.459Z,136
2016-05-03T13:13:10.430Z,132
2016-05-03T13:14:10.449Z,132
2016-05-03T13:15:10.405Z,132
2016-05-03T13:16:10.907Z,132
2016-05-03T13:17:10.379Z,132
2016-05-03T13:18:10.037Z,136
2016-05-03T13:19:10.337Z,132
2016-05-03T13:20:10.308Z,132
2016-05-03T13:21:10.296Z,132
2016-05-03T13:22:10.282Z,132
2016-05-03T13:23:10.114Z,132
2016-05-03T13:24:10.899Z,136
2016-05-03T13:25:10.063Z,136
2016-05-03T13:26:10.190Z,136
2016-05-03T13:27:10.021Z,144
2016-05-03T13:28:10.185Z,144
2016-05-03T13:29:10.213Z,144
2016-05-03T13:30:10.085Z,32
2016-05-03T13:31:10.972Z,136
2016-05-03T13:32:10.281Z,136
2016-05-03T13:33:10.138Z,136
2016-05-03T13:34:10.140Z,136
2016-05-03T13:35:10.127Z,124
2016-05-03T13:36:10.284Z,132
2016-05-03T13:37:10.287Z,132
2016-05-03T13:38:10.313Z,132
2016-05-03T13:39:10.307Z,136
2016-05-03T13:40:10.268Z,136
2016-05-03T13:41:10.244Z,20
2016-05-03T13:42:10.221Z,20
2016-05-03T13:43:10.197Z,48
2016-05-03T13:44:10.201Z,68
2016-05-03T13:45:10.174Z,140
2016-05-03T13:46:10.007Z,40
2016-05-03T13:47:10.402Z,136
2016-05-03T13:48:10.124Z,136
2016-05-03T13:49:10.128Z,132
2016-05-03T13:50:10.116Z,132
2016-05-03T13:51:10.088Z,128
2016-05-03T13:52:10.077Z,128
2016-05-03T13:53:10.454Z,124
2016-05-03T13:54:09.895Z,128
2016-05-03T13:55:10.242Z,128
2016-05-03T13:56:10.011Z,124
2016-05-03T13:57:09.982Z,124
2016-05-03T13:58:09.985Z,124
2016-05-03T13:59:09.956Z,124
2016-05-03T14:00:09.928Z,120
2016-05-03T14:01:09.759Z,120
2016-05-03T14:02:10.043Z,124
2016-05-03T14:03:09.577Z,128
2016-05-03T14:04:09.892Z,124
2016-05-03T14:05:09.848Z,116
2016-05-03T14:06:09.664Z,116
2016-05-03T14:07:09.806Z,112
2016-05-03T14:08:09.808Z,112
2016-05-03T14:09:09.781Z,108
2016-05-03T14:10:10.002Z,108
2016-05-03T14:11:09.723Z,104
2016-05-03T14:12:09.586Z,108
2016-05-03T14:13:09.698Z,104
2016-05-03T14:14:09.528Z,108
2016-05-03T14:15:09.656Z,108
2016-05-03T14:16:09.658Z,104
2016-05-03T14:17:09.646Z,100
2016-05-03T14:18:09.914Z,104
2016-05-03T14:19:09.588Z,104
2016-05-03T14:20:09.747Z,104
2016-05-03T14:21:09.407Z,104
2016-05-03T14:22:09.549Z,100
2016-05-03T14:23:09.552Z,104
2016-05-03T14:24:09.508Z,100
2016-05-03T14:25:09.183Z,104
2016-05-03T14:26:10.030Z,100
2016-05-03T14:27:09.454Z,100
2016-05-03T14:28:09.441Z,96
2016-05-03T14:29:09.429Z,100
2016-05-03T14:30:09.399Z,100
2016-05-03T14:31:09.387Z,96
2016-05-03T14:32:09.373Z,100
2016-05-03T14:33:09.345Z,96
2016-05-03T14:34:09.332Z,100
2016-05-03T14:35:09.303Z,96
2016-05-03T14:36:09.400Z,96
2016-05-03T14:37:09.278Z,96
2016-05-03T14:38:09.687Z,96
2016-05-03T14:39:09.253Z,96
2016-05-03T14:40:09.083Z,100